sensor_id;sensor_type;location;lat;lon;timestamp;pressure;altitude;pressure_sealevel;temperature;humidity
75414;BME280;64758;52.122;5.404;2023-01-04T00:01:49;102036.66;;;8.29;100.00
75414;BME280;64758;52.122;5.404;2023-01-04T00:04:15;102029.00;;;8.26;100.00
75414;BME280;64758;52.122;5.404;2023-01-04T00:06:42;102020.06;;;8.27;100.00
75414;BME280;64758;52.122;5.404;2023-01-04T00:09:08;102015.75;;;8.26;100.00
75414;BME280;64758;52.122;5.404;2023-01-04T00:11:35;102028.16;;;8.26;100.00
75414;BME280;64758;52.122;5.404;2023-01-04T00:14:01;102013.13;;;8.26;100.00
75414;BME280;64758;52.122;5.404;2023-01-04T00:16:28;102001.56;;;8.27;100.00
75414;BME280;64758;52.122;5.404;2023-01-04T00:18:56;102000.00;;;8.25;100.00
75414;BME280;64758;52.122;5.404;2023-01-04T00:21:26;102006.44;;;8.22;100.00
75414;BME280;64758;52.122;5.404;2023-01-04T00:23:55;101996.81;;;8.21;100.00
75414;BME280;64758;52.122;5.404;2023-01-04T00:26:24;101968.00;;;8.18;100.00
75414;BME280;64758;52.122;5.404;2023-01-04T00:29:01;101958.50;;;8.16;100.00
75414;BME280;64758;52.122;5.404;2023-01-04T00:31:29;101956.28;;;8.21;100.00
75414;BME280;64758;52.122;5.404;2023-01-04T00:33:57;101970.38;;;8.21;100.00
75414;BME280;64758;52.122;5.404;2023-01-04T00:36:24;101950.44;;;8.17;100.00
75414;BME280;64758;52.122;5.404;2023-01-04T00:38:51;101961.44;;;8.22;100.00
75414;BME280;64758;52.122;5.404;2023-01-04T00:41:36;101949.03;;;8.23;100.00
75414;BME280;64758;52.122;5.404;2023-01-04T00:44:23;101943.63;;;8.24;100.00
75414;BME280;64758;52.122;5.404;2023-01-04T00:46:50;101935.66;;;8.24;100.00
75414;BME280;64758;52.122;5.404;2023-01-04T00:49:16;101931.06;;;8.26;100.00
75414;BME280;64758;52.122;5.404;2023-01-04T00:51:43;101925.78;;;8.26;100.00
75414;BME280;64758;52.122;5.404;2023-01-04T00:54:12;101913.22;;;8.28;100.00
75414;BME280;64758;52.122;5.404;2023-01-04T00:56:39;101916.56;;;8.30;100.00
75414;BME280;64758;52.122;5.404;2023-01-04T00:59:05;101916.69;;;8.29;100.00
75414;BME280;64758;52.122;5.404;2023-01-04T01:01:33;101908.63;;;8.30;100.00
75414;BME280;64758;52.122;5.404;2023-01-04T01:04:02;101891.22;;;8.28;100.00
75414;BME280;64758;52.122;5.404;2023-01-04T01:06:31;101889.41;;;8.28;100.00
75414;BME280;64758;52.122;5.404;2023-01-04T01:08:59;101885.63;;;8.31;100.00
75414;BME280;64758;52.122;5.404;2023-01-04T01:11:26;101876.69;;;8.32;100.00
75414;BME280;64758;52.122;5.404;2023-01-04T01:13:53;101860.69;;;8.33;100.00
75414;BME280;64758;52.122;5.404;2023-01-04T01:16:22;101864.31;;;8.32;100.00
75414;BME280;64758;52.122;5.404;2023-01-04T01:19:09;101868.19;;;8.38;100.00
75414;BME280;64758;52.122;5.404;2023-01-04T01:21:35;101857.59;;;8.38;100.00
75414;BME280;64758;52.122;5.404;2023-01-04T01:24:03;101856.47;;;8.40;100.00
75414;BME280;64758;52.122;5.404;2023-01-04T01:26:30;101862.47;;;8.42;100.00
75414;BME280;64758;52.122;5.404;2023-01-04T01:28:57;101850.59;;;8.46;100.00
75414;BME280;64758;52.122;5.404;2023-01-04T01:31:25;101834.41;;;8.49;100.00
75414;BME280;64758;52.122;5.404;2023-01-04T01:33:53;101827.44;;;8.48;100.00
75414;BME280;64758;52.122;5.404;2023-01-04T01:36:22;101828.81;;;8.52;100.00
75414;BME280;64758;52.122;5.404;2023-01-04T01:38:49;101830.88;;;8.58;100.00
75414;BME280;64758;52.122;5.404;2023-01-04T01:41:26;101832.38;;;8.61;100.00
75414;BME280;64758;52.122;5.404;2023-01-04T01:44:45;101837.91;;;8.67;100.00
75414;BME280;64758;52.122;5.404;2023-01-04T01:46:53;101820.06;;;8.69;100.00
75414;BME280;64758;52.122;5.404;2023-01-04T01:49:27;101837.31;;;8.73;100.00
75414;BME280;64758;52.122;5.404;2023-01-04T01:51:59;101829.09;;;8.76;100.00
75414;BME280;64758;52.122;5.404;2023-01-04T01:54:33;101831.94;;;8.82;100.00
75414;BME280;64758;52.122;5.404;2023-01-04T01:57:03;101826.50;;;8.84;100.00
75414;BME280;64758;52.122;5.404;2023-01-04T01:59:33;101828.00;;;8.86;100.00
75414;BME280;64758;52.122;5.404;2023-01-04T02:02:01;101825.38;;;8.86;100.00
75414;BME280;64758;52.122;5.404;2023-01-04T02:04:28;101818.78;;;8.90;100.00
75414;BME280;64758;52.122;5.404;2023-01-04T02:06:56;101813.00;;;8.95;100.00
75414;BME280;64758;52.122;5.404;2023-01-04T02:09:24;101815.53;;;8.96;100.00
75414;BME280;64758;52.122;5.404;2023-01-04T02:11:51;101808.94;;;9.00;100.00
75414;BME280;64758;52.122;5.404;2023-01-04T02:14:18;101814.06;;;9.02;100.00
75414;BME280;64758;52.122;5.404;2023-01-04T02:17:05;101810.00;;;9.07;100.00
75414;BME280;64758;52.122;5.404;2023-01-04T02:20:07;101811.66;;;9.08;100.00
75414;BME280;64758;52.122;5.404;2023-01-04T02:31:47;101827.53;;;9.26;100.00
75414;BME280;64758;52.122;5.404;2023-01-04T02:34:35;101795.88;;;9.24;100.00
75414;BME280;64758;52.122;5.404;2023-01-04T02:37:22;101780.78;;;9.25;100.00
75414;BME280;64758;52.122;5.404;2023-01-04T02:40:01;101782.84;;;9.31;100.00
75414;BME280;64758;52.122;5.404;2023-01-04T02:45:40;101769.94;;;9.36;100.00
75414;BME280;64758;52.122;5.404;2023-01-04T02:48:08;101779.41;;;9.38;100.00
75414;BME280;64758;52.122;5.404;2023-01-04T02:50:58;101773.28;;;9.38;100.00
75414;BME280;64758;52.122;5.404;2023-01-04T02:53:32;101766.97;;;9.39;100.00
75414;BME280;64758;52.122;5.404;2023-01-04T02:56:07;101769.19;;;9.43;100.00
75414;BME280;64758;52.122;5.404;2023-01-04T03:01:37;101763.38;;;9.48;100.00
75414;BME280;64758;52.122;5.404;2023-01-04T03:07:45;101762.09;;;9.52;100.00
75414;BME280;64758;52.122;5.404;2023-01-04T03:10:20;101757.47;;;9.54;100.00
75414;BME280;64758;52.122;5.404;2023-01-04T03:12:55;101768.75;;;9.56;100.00
75414;BME280;64758;52.122;5.404;2023-01-04T03:15:25;101754.50;;;9.57;100.00
75414;BME280;64758;52.122;5.404;2023-01-04T03:18:10;101743.44;;;9.61;100.00
75414;BME280;64758;52.122;5.404;2023-01-04T03:20:40;101744.56;;;9.59;100.00
75414;BME280;64758;52.122;5.404;2023-01-04T03:23:09;101746.91;;;9.62;100.00
75414;BME280;64758;52.122;5.404;2023-01-04T03:26:03;101731.84;;;9.62;100.00
75414;BME280;64758;52.122;5.404;2023-01-04T03:28:51;101736.50;;;9.68;100.00
75414;BME280;64758;52.122;5.404;2023-01-04T03:32:05;101744.28;;;9.70;100.00
75414;BME280;64758;52.122;5.404;2023-01-04T03:34:52;101724.41;;;9.74;100.00
75414;BME280;64758;52.122;5.404;2023-01-04T03:40:45;101731.75;;;9.80;100.00
75414;BME280;64758;52.122;5.404;2023-01-04T03:43:42;101727.63;;;9.85;100.00
75414;BME280;64758;52.122;5.404;2023-01-04T03:46:34;101721.69;;;9.91;100.00
75414;BME280;64758;52.122;5.404;2023-01-04T03:49:33;101712.56;;;9.94;100.00
75414;BME280;64758;52.122;5.404;2023-01-04T03:52:03;101718.91;;;10.01;100.00
75414;BME280;64758;52.122;5.404;2023-01-04T03:54:38;101721.09;;;10.05;100.00
75414;BME280;64758;52.122;5.404;2023-01-04T03:57:07;101723.25;;;10.10;100.00
75414;BME280;64758;52.122;5.404;2023-01-04T03:59:44;101734.22;;;10.14;100.00
75414;BME280;64758;52.122;5.404;2023-01-04T04:02:13;101724.28;;;10.16;100.00
75414;BME280;64758;52.122;5.404;2023-01-04T04:04:44;101707.03;;;10.20;100.00
75414;BME280;64758;52.122;5.404;2023-01-04T04:07:29;101697.75;;;10.24;100.00
75414;BME280;64758;52.122;5.404;2023-01-04T04:10:14;101693.09;;;10.26;100.00
75414;BME280;64758;52.122;5.404;2023-01-04T04:12:41;101687.16;;;10.32;100.00
75414;BME280;64758;52.122;5.404;2023-01-04T04:15:08;101693.28;;;10.41;100.00
75414;BME280;64758;52.122;5.404;2023-01-04T04:17:34;101684.00;;;10.45;100.00
75414;BME280;64758;52.122;5.404;2023-01-04T04:20:01;101682.19;;;10.45;100.00
75414;BME280;64758;52.122;5.404;2023-01-04T04:22:27;101662.59;;;10.54;100.00
75414;BME280;64758;52.122;5.404;2023-01-04T04:24:54;101669.25;;;10.58;100.00
75414;BME280;64758;52.122;5.404;2023-01-04T04:27:20;101672.56;;;10.60;100.00
75414;BME280;64758;52.122;5.404;2023-01-04T04:29:47;101662.75;;;10.61;100.00
75414;BME280;64758;52.122;5.404;2023-01-04T04:32:13;101685.34;;;10.65;100.00
75414;BME280;64758;52.122;5.404;2023-01-04T04:34:40;101670.56;;;10.62;100.00
75414;BME280;64758;52.122;5.404;2023-01-04T04:37:07;101661.41;;;10.65;100.00
75414;BME280;64758;52.122;5.404;2023-01-04T04:39:34;101663.94;;;10.66;100.00
75414;BME280;64758;52.122;5.404;2023-01-04T04:42:00;101659.75;;;10.72;100.00
75414;BME280;64758;52.122;5.404;2023-01-04T04:44:27;101649.97;;;10.72;100.00
75414;BME280;64758;52.122;5.404;2023-01-04T04:46:53;101653.44;;;10.73;100.00
75414;BME280;64758;52.122;5.404;2023-01-04T04:49:20;101652.13;;;10.77;100.00
75414;BME280;64758;52.122;5.404;2023-01-04T04:51:46;101634.50;;;10.76;100.00
75414;BME280;64758;52.122;5.404;2023-01-04T04:54:18;101639.69;;;10.77;100.00
75414;BME280;64758;52.122;5.404;2023-01-04T04:56:46;101629.38;;;10.74;100.00
75414;BME280;64758;52.122;5.404;2023-01-04T04:59:13;101639.50;;;10.71;100.00
75414;BME280;64758;52.122;5.404;2023-01-04T05:01:40;101642.50;;;10.68;100.00
75414;BME280;64758;52.122;5.404;2023-01-04T05:04:07;101628.41;;;10.67;100.00
75414;BME280;64758;52.122;5.404;2023-01-04T05:06:34;101633.03;;;10.65;100.00
75414;BME280;64758;52.122;5.404;2023-01-04T05:09:00;101639.69;;;10.61;100.00
75414;BME280;64758;52.122;5.404;2023-01-04T05:11:27;101629.41;;;10.58;100.00
75414;BME280;64758;52.122;5.404;2023-01-04T05:14:12;101633.72;;;10.59;100.00
75414;BME280;64758;52.122;5.404;2023-01-04T05:16:38;101645.66;;;10.55;100.00
75414;BME280;64758;52.122;5.404;2023-01-04T05:19:05;101627.06;;;10.55;100.00
75414;BME280;64758;52.122;5.404;2023-01-04T05:21:32;101628.06;;;10.54;100.00
75414;BME280;64758;52.122;5.404;2023-01-04T05:23:58;101632.38;;;10.55;100.00
75414;BME280;64758;52.122;5.404;2023-01-04T05:26:25;101633.53;;;10.53;100.00
75414;BME280;64758;52.122;5.404;2023-01-04T05:28:51;101633.53;;;10.53;100.00
75414;BME280;64758;52.122;5.404;2023-01-04T05:31:19;101634.72;;;10.50;100.00
75414;BME280;64758;52.122;5.404;2023-01-04T05:33:46;101620.44;;;10.51;100.00
75414;BME280;64758;52.122;5.404;2023-01-04T05:36:13;101617.94;;;10.50;100.00
75414;BME280;64758;52.122;5.404;2023-01-04T05:38:39;101609.81;;;10.51;100.00
75414;BME280;64758;52.122;5.404;2023-01-04T05:41:06;101606.97;;;10.53;100.00
75414;BME280;64758;52.122;5.404;2023-01-04T05:43:52;101607.81;;;10.53;100.00
75414;BME280;64758;52.122;5.404;2023-01-04T05:46:19;101595.53;;;10.52;100.00
75414;BME280;64758;52.122;5.404;2023-01-04T05:48:45;101583.72;;;10.55;100.00
75414;BME280;64758;52.122;5.404;2023-01-04T05:51:12;101589.88;;;10.55;100.00
75414;BME280;64758;52.122;5.404;2023-01-04T05:53:38;101595.00;;;10.57;100.00
75414;BME280;64758;52.122;5.404;2023-01-04T05:56:05;101586.22;;;10.56;100.00
75414;BME280;64758;52.122;5.404;2023-01-04T05:58:32;101566.78;;;10.56;100.00
75414;BME280;64758;52.122;5.404;2023-01-04T06:00:58;101581.72;;;10.57;100.00
75414;BME280;64758;52.122;5.404;2023-01-04T06:03:25;101563.13;;;10.57;100.00
75414;BME280;64758;52.122;5.404;2023-01-04T06:05:51;101569.28;;;10.57;100.00
75414;BME280;64758;52.122;5.404;2023-01-04T06:08:18;101564.63;;;10.59;100.00
75414;BME280;64758;52.122;5.404;2023-01-04T06:10:51;101582.25;;;10.60;100.00
75414;BME280;64758;52.122;5.404;2023-01-04T06:13:18;101576.41;;;10.65;100.00
75414;BME280;64758;52.122;5.404;2023-01-04T06:15:45;101576.25;;;10.66;100.00
75414;BME280;64758;52.122;5.404;2023-01-04T06:18:12;101571.94;;;10.65;100.00
75414;BME280;64758;52.122;5.404;2023-01-04T06:20:40;101581.38;;;10.68;100.00
75414;BME280;64758;52.122;5.404;2023-01-04T06:23:07;101580.88;;;10.72;100.00
75414;BME280;64758;52.122;5.404;2023-01-04T06:25:34;101598.50;;;10.73;100.00
75414;BME280;64758;52.122;5.404;2023-01-04T06:28:00;101597.31;;;10.76;100.00
75414;BME280;64758;52.122;5.404;2023-01-04T06:30:27;101597.97;;;10.78;100.00
75414;BME280;64758;52.122;5.404;2023-01-04T06:32:54;101595.50;;;10.76;100.00
75414;BME280;64758;52.122;5.404;2023-01-04T06:35:21;101601.47;;;10.78;100.00
75414;BME280;64758;52.122;5.404;2023-01-04T06:37:47;101595.63;;;10.83;100.00
75414;BME280;64758;52.122;5.404;2023-01-04T06:40:14;101593.81;;;10.83;100.00
75414;BME280;64758;52.122;5.404;2023-01-04T06:42:40;101580.00;;;10.88;100.00
75414;BME280;64758;52.122;5.404;2023-01-04T06:45:14;101587.00;;;10.89;100.00
75414;BME280;64758;52.122;5.404;2023-01-04T06:47:41;101576.88;;;10.92;100.00
75414;BME280;64758;52.122;5.404;2023-01-04T06:50:08;101588.31;;;10.93;100.00
75414;BME280;64758;52.122;5.404;2023-01-04T06:52:35;101563.56;;;10.92;100.00
75414;BME280;64758;52.122;5.404;2023-01-04T06:55:03;101577.88;;;10.91;100.00
75414;BME280;64758;52.122;5.404;2023-01-04T06:57:29;101574.88;;;10.94;100.00
75414;BME280;64758;52.122;5.404;2023-01-04T06:59:56;101564.22;;;10.94;100.00
75414;BME280;64758;52.122;5.404;2023-01-04T07:02:22;101556.41;;;10.93;100.00
75414;BME280;64758;52.122;5.404;2023-01-04T07:04:49;101551.09;;;10.93;100.00
75414;BME280;64758;52.122;5.404;2023-01-04T07:07:16;101560.56;;;10.95;100.00
75414;BME280;64758;52.122;5.404;2023-01-04T07:09:43;101540.97;;;10.96;100.00
75414;BME280;64758;52.122;5.404;2023-01-04T07:12:09;101544.28;;;10.98;100.00
75414;BME280;64758;52.122;5.404;2023-01-04T07:14:36;101543.97;;;10.93;100.00
75414;BME280;64758;52.122;5.404;2023-01-04T07:17:02;101548.75;;;10.98;100.00
75414;BME280;64758;52.122;5.404;2023-01-04T07:19:29;101533.16;;;10.95;100.00
75414;BME280;64758;52.122;5.404;2023-01-04T07:21:55;101548.94;;;10.96;100.00
75414;BME280;64758;52.122;5.404;2023-01-04T07:24:24;101547.09;;;10.97;100.00
75414;BME280;64758;52.122;5.404;2023-01-04T07:26:55;101528.69;;;10.95;100.00
75414;BME280;64758;52.122;5.404;2023-01-04T07:29:22;101532.00;;;10.97;100.00
75414;BME280;64758;52.122;5.404;2023-01-04T07:31:50;101534.47;;;10.99;100.00
75414;BME280;64758;52.122;5.404;2023-01-04T07:34:19;101528.34;;;10.98;100.00
75414;BME280;64758;52.122;5.404;2023-01-04T07:36:46;101536.97;;;11.00;100.00
75414;BME280;64758;52.122;5.404;2023-01-04T07:39:15;101547.25;;;11.03;100.00
75414;BME280;64758;52.122;5.404;2023-01-04T07:41:41;101541.28;;;11.01;100.00
75414;BME280;64758;52.122;5.404;2023-01-04T07:44:09;101538.13;;;10.98;100.00
75414;BME280;64758;52.122;5.404;2023-01-04T07:46:37;101530.50;;;10.95;100.00
75414;BME280;64758;52.122;5.404;2023-01-04T07:49:04;101537.31;;;10.97;100.00
75414;BME280;64758;52.122;5.404;2023-01-04T07:51:34;101537.47;;;10.96;100.00
75414;BME280;64758;52.122;5.404;2023-01-04T07:54:00;101528.84;;;10.94;100.00
75414;BME280;64758;52.122;5.404;2023-01-04T07:56:27;101513.06;;;10.92;100.00
75414;BME280;64758;52.122;5.404;2023-01-04T07:58:54;101520.03;;;10.93;100.00
75414;BME280;64758;52.122;5.404;2023-01-04T08:01:25;101519.19;;;10.93;100.00
75414;BME280;64758;52.122;5.404;2023-01-04T08:03:52;101529.69;;;10.94;100.00
75414;BME280;64758;52.122;5.404;2023-01-04T08:06:20;101523.34;;;10.95;100.00
75414;BME280;64758;52.122;5.404;2023-01-04T08:08:47;101520.38;;;10.98;100.00
75414;BME280;64758;52.122;5.404;2023-01-04T08:11:16;101542.63;;;10.97;100.00
75414;BME280;64758;52.122;5.404;2023-01-04T08:13:43;101526.50;;;10.99;100.00
75414;BME280;64758;52.122;5.404;2023-01-04T08:16:24;101526.34;;;11.00;100.00
75414;BME280;64758;52.122;5.404;2023-01-04T08:18:54;101525.69;;;10.98;100.00
75414;BME280;64758;52.122;5.404;2023-01-04T08:21:21;101518.03;;;10.95;100.00
75414;BME280;64758;52.122;5.404;2023-01-04T08:23:48;101524.69;;;10.99;100.00
75414;BME280;64758;52.122;5.404;2023-01-04T08:26:15;101527.69;;;10.96;100.00
75414;BME280;64758;52.122;5.404;2023-01-04T08:28:43;101535.31;;;10.99;100.00
75414;BME280;64758;52.122;5.404;2023-01-04T08:31:16;101523.69;;;11.00;100.00
75414;BME280;64758;52.122;5.404;2023-01-04T08:33:44;101524.34;;;11.02;100.00
75414;BME280;64758;52.122;5.404;2023-01-04T08:38:37;101525.34;;;11.01;100.00
75414;BME280;64758;52.122;5.404;2023-01-04T08:41:24;101520.81;;;11.02;100.00
75414;BME280;64758;52.122;5.404;2023-01-04T08:44:10;101524.50;;;11.01;100.00
75414;BME280;64758;52.122;5.404;2023-01-04T08:46:37;101534.97;;;11.02;100.00
75414;BME280;64758;52.122;5.404;2023-01-04T08:49:04;101526.00;;;11.03;100.00
75414;BME280;64758;52.122;5.404;2023-01-04T08:51:30;101538.28;;;11.04;100.00
75414;BME280;64758;52.122;5.404;2023-01-04T08:53:56;101556.69;;;11.06;100.00
75414;BME280;64758;52.122;5.404;2023-01-04T08:56:23;101533.63;;;11.06;100.00
75414;BME280;64758;52.122;5.404;2023-01-04T08:58:50;101528.97;;;11.08;100.00
75414;BME280;64758;52.122;5.404;2023-01-04T09:01:16;101536.75;;;11.10;100.00
75414;BME280;64758;52.122;5.404;2023-01-04T09:03:43;101529.63;;;11.10;100.00
75414;BME280;64758;52.122;5.404;2023-01-04T09:06:12;101546.38;;;11.11;100.00
75414;BME280;64758;52.122;5.404;2023-01-04T09:08:40;101540.06;;;11.12;100.00
75414;BME280;64758;52.122;5.404;2023-01-04T09:11:13;101547.69;;;11.15;100.00
75414;BME280;64758;52.122;5.404;2023-01-04T09:13:40;101551.34;;;11.14;100.00
75414;BME280;64758;52.122;5.404;2023-01-04T09:16:13;101551.34;;;11.14;100.00
75414;BME280;64758;52.122;5.404;2023-01-04T09:18:40;101551.00;;;11.17;100.00
75414;BME280;64758;52.122;5.404;2023-01-04T09:21:11;101557.34;;;11.16;100.00
75414;BME280;64758;52.122;5.404;2023-01-04T09:23:39;101548.53;;;11.15;100.00
75414;BME280;64758;52.122;5.404;2023-01-04T09:26:14;101551.66;;;11.19;100.00
75414;BME280;64758;52.122;5.404;2023-01-04T09:28:42;101549.66;;;11.21;100.00
75414;BME280;64758;52.122;5.404;2023-01-04T09:31:14;101567.13;;;11.23;100.00
75414;BME280;64758;52.122;5.404;2023-01-04T09:33:42;101568.78;;;11.24;100.00
75414;BME280;64758;52.122;5.404;2023-01-04T09:36:29;101559.97;;;11.24;100.00
75414;BME280;64758;52.122;5.404;2023-01-04T09:38:56;101565.13;;;11.25;100.00
75414;BME280;64758;52.122;5.404;2023-01-04T09:41:27;101561.47;;;11.26;100.00
75414;BME280;64758;52.122;5.404;2023-01-04T09:44:21;101566.59;;;11.28;100.00
75414;BME280;64758;52.122;5.404;2023-01-04T09:51:57;101571.41;;;11.32;100.00
75414;BME280;64758;52.122;5.404;2023-01-04T09:54:31;101576.19;;;11.37;100.00
75414;BME280;64758;52.122;5.404;2023-01-04T09:56:59;101571.72;;;11.37;100.00
75414;BME280;64758;52.122;5.404;2023-01-04T09:59:31;101581.34;;;11.38;100.00
75414;BME280;64758;52.122;5.404;2023-01-04T10:02:02;101551.25;;;11.38;100.00
75414;BME280;64758;52.122;5.404;2023-01-04T10:04:44;101574.03;;;11.40;100.00
75414;BME280;64758;52.122;5.404;2023-01-04T10:07:26;101567.06;;;11.39;100.00
75414;BME280;64758;52.122;5.404;2023-01-04T10:09:55;101580.00;;;11.42;100.00
75414;BME280;64758;52.122;5.404;2023-01-04T10:12:32;101575.34;;;11.44;100.00
75414;BME280;64758;52.122;5.404;2023-01-04T10:15:17;101585.78;;;11.45;100.00
75414;BME280;64758;52.122;5.404;2023-01-04T10:20:59;101574.34;;;11.45;100.00
75414;BME280;64758;52.122;5.404;2023-01-04T10:24:17;101573.34;;;11.46;100.00
75414;BME280;64758;52.122;5.404;2023-01-04T10:26:50;101549.56;;;11.44;100.00
75414;BME280;64758;52.122;5.404;2023-01-04T10:32:40;101576.00;;;11.46;100.00
75414;BME280;64758;52.122;5.404;2023-01-04T10:35:16;101567.34;;;11.44;100.00
75414;BME280;64758;52.122;5.404;2023-01-04T10:37:46;101572.50;;;11.45;100.00
75414;BME280;64758;52.122;5.404;2023-01-04T10:40:14;101562.69;;;11.46;100.00
75414;BME280;64758;52.122;5.404;2023-01-04T10:42:52;101570.50;;;11.47;100.00
75414;BME280;64758;52.122;5.404;2023-01-04T10:55:53;101551.50;;;11.50;100.00
75414;BME280;64758;52.122;5.404;2023-01-04T11:01:20;101551.97;;;11.54;100.00
75414;BME280;64758;52.122;5.404;2023-01-04T11:04:01;101547.34;;;11.56;100.00
75414;BME280;64758;52.122;5.404;2023-01-04T11:06:39;101544.69;;;11.56;100.00
75414;BME280;64758;52.122;5.404;2023-01-04T11:09:34;101540.38;;;11.55;100.00
75414;BME280;64758;52.122;5.404;2023-01-04T11:12:05;101525.25;;;11.55;100.00
75414;BME280;64758;52.122;5.404;2023-01-04T11:14:34;101530.38;;;11.57;100.00
75414;BME280;64758;52.122;5.404;2023-01-04T11:17:03;101521.38;;;11.58;100.00
75414;BME280;64758;52.122;5.404;2023-01-04T11:19:32;101516.41;;;11.55;100.00
75414;BME280;64758;52.122;5.404;2023-01-04T11:22:23;101510.75;;;11.58;100.00
75414;BME280;64758;52.122;5.404;2023-01-04T11:24:58;101527.56;;;11.58;100.00
75414;BME280;64758;52.122;5.404;2023-01-04T11:27:59;101510.94;;;11.56;100.00
75414;BME280;64758;52.122;5.404;2023-01-04T11:33:17;101509.09;;;11.57;100.00
75414;BME280;64758;52.122;5.404;2023-01-04T11:35:53;101491.13;;;11.59;100.00
75414;BME280;64758;52.122;5.404;2023-01-04T11:38:26;101495.63;;;11.58;100.00
75414;BME280;64758;52.122;5.404;2023-01-04T11:40:59;101500.41;;;11.63;100.00
75414;BME280;64758;52.122;5.404;2023-01-04T11:43:28;101498.59;;;11.63;100.00
75414;BME280;64758;52.122;5.404;2023-01-04T11:45:57;101497.03;;;11.69;100.00
75414;BME280;64758;52.122;5.404;2023-01-04T11:48:35;101488.53;;;11.73;100.00
75414;BME280;64758;52.122;5.404;2023-01-04T11:51:04;101474.69;;;11.78;100.00
75414;BME280;64758;52.122;5.404;2023-01-04T11:53:36;101491.94;;;11.82;100.00
75414;BME280;64758;52.122;5.404;2023-01-04T11:56:15;101494.44;;;11.83;100.00
75414;BME280;64758;52.122;5.404;2023-01-04T11:58:43;101493.09;;;11.87;100.00
75414;BME280;64758;52.122;5.404;2023-01-04T12:01:23;101509.72;;;11.89;100.00
75414;BME280;64758;52.122;5.404;2023-01-04T12:03:50;101502.09;;;11.86;100.00
75414;BME280;64758;52.122;5.404;2023-01-04T12:06:21;101513.84;;;11.92;100.00
75414;BME280;64758;52.122;5.404;2023-01-04T12:08:50;101504.19;;;11.91;100.00
75414;BME280;64758;52.122;5.404;2023-01-04T12:11:27;101481.16;;;11.98;100.00
75414;BME280;64758;52.122;5.404;2023-01-04T12:13:57;101487.78;;;12.02;100.00
75414;BME280;64758;52.122;5.404;2023-01-04T12:16:40;101484.13;;;12.03;100.00
75414;BME280;64758;52.122;5.404;2023-01-04T12:19:16;101482.47;;;12.02;100.00
75414;BME280;64758;52.122;5.404;2023-01-04T12:21:47;101478.63;;;12.04;100.00
75414;BME280;64758;52.122;5.404;2023-01-04T12:24:17;101477.78;;;12.04;100.00
75414;BME280;64758;52.122;5.404;2023-01-04T12:26:45;101476.25;;;12.09;100.00
75414;BME280;64758;52.122;5.404;2023-01-04T12:37:00;101477.66;;;12.20;100.00
75414;BME280;64758;52.122;5.404;2023-01-04T12:39:38;101479.31;;;12.21;100.00
75414;BME280;64758;52.122;5.404;2023-01-04T12:42:15;101465.81;;;12.22;100.00
75414;BME280;64758;52.122;5.404;2023-01-04T12:50:10;101468.56;;;12.29;100.00
75414;BME280;64758;52.122;5.404;2023-01-04T12:52:42;101475.56;;;12.30;100.00
75414;BME280;64758;52.122;5.404;2023-01-04T12:58:01;101466.84;;;12.36;100.00
75414;BME280;64758;52.122;5.404;2023-01-04T13:05:59;101482.72;;;12.44;100.00
75414;BME280;64758;52.122;5.404;2023-01-04T13:08:28;101482.94;;;12.42;100.00
75414;BME280;64758;52.122;5.404;2023-01-04T13:11:00;101493.22;;;12.45;100.00
75414;BME280;64758;52.122;5.404;2023-01-04T13:16:44;101492.88;;;12.48;100.00
75414;BME280;64758;52.122;5.404;2023-01-04T13:19:21;101498.00;;;12.50;100.00
75414;BME280;64758;52.122;5.404;2023-01-04T13:21:50;101481.19;;;12.49;100.00
75414;BME280;64758;52.122;5.404;2023-01-04T13:24:31;101482.84;;;12.50;100.00
75414;BME280;64758;52.122;5.404;2023-01-04T13:27:14;101488.34;;;12.49;100.00
75414;BME280;64758;52.122;5.404;2023-01-04T13:29:41;101481.56;;;12.46;100.00
75414;BME280;64758;52.122;5.404;2023-01-04T13:39:43;101488.53;;;12.47;100.00
75414;BME280;64758;52.122;5.404;2023-01-04T13:42:33;101474.38;;;12.47;100.00
75414;BME280;64758;52.122;5.404;2023-01-04T13:45:36;101453.25;;;12.45;100.00
75414;BME280;64758;52.122;5.404;2023-01-04T13:48:09;101449.75;;;12.45;100.00
75414;BME280;64758;52.122;5.404;2023-01-04T13:50:40;101459.41;;;12.46;100.00
75414;BME280;64758;52.122;5.404;2023-01-04T13:53:19;101470.06;;;12.46;100.00
75414;BME280;64758;52.122;5.404;2023-01-04T13:55:54;101466.75;;;12.44;100.00
75414;BME280;64758;52.122;5.404;2023-01-04T13:58:26;101466.75;;;12.44;100.00
75414;BME280;64758;52.122;5.404;2023-01-04T14:01:03;101472.44;;;12.41;100.00
75414;BME280;64758;52.122;5.404;2023-01-04T14:03:35;101458.09;;;12.42;100.00
75414;BME280;64758;52.122;5.404;2023-01-04T14:08:41;101463.00;;;12.38;100.00
75414;BME280;64758;52.122;5.404;2023-01-04T14:14:15;101469.69;;;12.34;100.00
75414;BME280;64758;52.122;5.404;2023-01-04T14:16:43;101452.06;;;12.33;100.00
75414;BME280;64758;52.122;5.404;2023-01-04T14:19:37;101448.53;;;12.33;100.00
75414;BME280;64758;52.122;5.404;2023-01-04T14:24:48;101460.78;;;12.27;100.00
75414;BME280;64758;52.122;5.404;2023-01-04T14:27:37;101461.94;;;12.25;100.00
75414;BME280;64758;52.122;5.404;2023-01-04T14:32:55;101458.63;;;12.23;100.00
75414;BME280;64758;52.122;5.404;2023-01-04T14:35:23;101454.88;;;12.17;100.00
75414;BME280;64758;52.122;5.404;2023-01-04T14:37:50;101454.41;;;12.14;100.00
75414;BME280;64758;52.122;5.404;2023-01-04T14:40:23;101467.72;;;12.14;100.00
75414;BME280;64758;52.122;5.404;2023-01-04T14:42:52;101465.06;;;12.14;100.00